メインページ
METAR-TAF:

METAR-TAF

空港 :

ヘルシンキ, フィンランド

ヘルシンキ・ヴァンター国際空港

緯度: 60-19N, 経度: 024-58E, 海抜: 51m

現時点の気象観測

当レポートは28分前の09:20(UTC)に作成
西の風 8kt
気温 2°C
湿度 87%
気圧 1012 hPa
視程10km以上
高度800ftの千切れ雲あり

METAR: EFHK 250920Z 28008KT 9999 BKN008 02/00 Q1012 NOSIG

時間: 11:48 (09:48 UTC)

予報

当レポートは1時間24分前の08:24(UTC)に作成
予報は25日の 09時(UTC)から 26日の 09時(UTC)まで有効
西/北西の風 7kt
視程10km以上
高度800ftの千切れ雲あり
25日の 09時(UTC)から 25日の 11時(UTC)まで一時的に
高度800ftの雲は散在している
高度2000ftの千切れ雲あり
25日の 11時(UTC)から 25日の 14時(UTC)まで徐々に
高度1500ftの千切れ雲あり
確率 40%
26日の 00時(UTC)から 26日の 04時(UTC)まで
視程: 0700m
着氷性の霧
26日の 04時(UTC)から 26日の 06時(UTC)まで徐々に
南西の風 10kt
26日の 06時(UTC)から 26日の 09時(UTC)まで一時的に
視程: 6000m
高度1300ftの千切れ雲あり
小雨, 雪

TAF: EFHK 250824Z 2509/2609 29007KT 9999 BKN008 TEMPO 2509/2511 SCT008 BKN020 BECMG 2511/2514 BKN015 PROB40 2600/2604 0700 FZFG BECMG 2604/2606 23010KT TEMPO 2606/2609 6000 -RASN BKN013

4,000以上の空港の気象観測と天気予報(METAR報とTAF報)

利用可能な観測所は地図上に黄色い丸と赤い丸で示す。

丸の上にカーソルを重ねると観測所名を参照できる。

次にクリックすると気象観測と天気予報を参照できる。

マップの切り替え:黒色「×」印の緑ボタンをクリックして拡大、「-」印の緑ボタンをクリックして縮小、緑色の三角印をクリックして隣りの地図に切り替え


METAR-TAF: